Time;durP1;ratioP1;P1;durP2;ratioP2;P2;SDS_P1;SDS_P2;PMS_P1;PMS_P2;Temp;Humidity;BMP_temperature;BMP_pressure;BME280_temperature;BME280_humidity;BME280_pressure;Samples;Min_cycle;Max_cycle;Signal;HPM_P1;HPM_P2
2023/12/25 00:04:07;;;;;;;16.85;6.53;;;;;;;;;;10378886;28;20128;-78
2023/12/25 00:09:07;;;;;;;17.08;7.85;;;;;;;;;;10377162;28;20021;-79
2023/12/25 00:14:07;;;;;;;15.13;7.25;;;;;;;;;;10377758;28;20104;-79
2023/12/25 00:19:08;;;;;;;19.95;7.40;;;;;;;;;;10377194;28;20022;-78
2023/12/25 00:24:08;;;;;;;19.10;7.72;;;;;;;;;;10377993;28;20026;-78
2023/12/25 00:29:09;;;;;;;20.02;8.25;;;;;;;;;;10377526;28;20203;-79
2023/12/25 00:34:09;;;;;;;15.40;6.82;;;;;;;;;;10377717;28;20017;-79
2023/12/25 00:39:11;;;;;;;18.85;7.47;;;;;;;;;;10377204;28;20018;-78
2023/12/25 00:44:11;;;;;;;13.15;6.93;;;;;;;;;;10377278;28;20037;-79
2023/12/25 00:49:12;;;;;;;18.65;7.93;;;;;;;;;;10376755;28;20206;-79
2023/12/25 00:54:12;;;;;;;16.48;7.35;;;;;;;;;;10357967;28;20018;-78
2023/12/25 00:59:12;;;;;;;22.77;6.82;;;;;;;;;;10375680;28;20030;-76
2023/12/25 01:04:13;;;;;;;13.30;7.03;;;;;;;;;;10374986;28;20076;-78
2023/12/25 01:09:13;;;;;;;14.35;7.15;;;;;;;;;;10375954;28;20243;-77
2023/12/25 01:14:13;;;;;;;20.08;7.45;;;;;;;;;;10375691;28;20317;-77
2023/12/25 01:19:13;;;;;;;19.05;8.10;;;;;;;;;;10375628;28;20060;-77
2023/12/25 01:24:14;;;;;;;13.85;6.75;;;;;;;;;;10369107;28;20030;-77
2023/12/25 01:29:14;;;;;;;16.77;6.90;;;;;;;;;;10375187;28;20034;-79
2023/12/25 01:34:14;;;;;;;19.63;6.97;;;;;;;;;;10375692;28;20018;-78
2023/12/25 01:39:14;;;;;;;15.55;7.40;;;;;;;;;;10375408;28;20665;-78
2023/12/25 01:44:14;;;;;;;20.42;6.95;;;;;;;;;;10375180;28;20052;-79
2023/12/25 01:49:15;;;;;;;12.77;6.57;;;;;;;;;;10375161;28;20033;-76
2023/12/25 01:54:15;;;;;;;16.25;7.13;;;;;;;;;;10374643;28;20026;-79
2023/12/25 01:59:15;;;;;;;18.30;6.43;;;;;;;;;;10374362;28;20215;-77
2023/12/25 02:04:15;;;;;;;13.15;6.75;;;;;;;;;;10374658;28;20030;-78
2023/12/25 02:09:16;;;;;;;21.42;6.22;;;;;;;;;;10373525;28;20342;-78
2023/12/25 02:14:17;;;;;;;17.70;6.57;;;;;;;;;;10373657;28;20014;-78
2023/12/25 02:19:26;;;;;;;20.08;7.40;;;;;;;;;;10373499;28;20034;-77
2023/12/25 02:24:30;;;;;;;16.00;6.85;;;;;;;;;;10357137;28;20108;-77
2023/12/25 02:29:31;;;;;;;18.40;6.57;;;;;;;;;;10374907;28;20033;-76
2023/12/25 02:34:31;;;;;;;13.50;6.95;;;;;;;;;;10377407;28;20018;-78
2023/12/25 02:39:32;;;;;;;23.45;6.22;;;;;;;;;;10380432;28;20022;-77
2023/12/25 02:44:32;;;;;;;16.58;7.75;;;;;;;;;;10382691;28;20014;-77
2023/12/25 02:49:32;;;;;;;19.65;7.15;;;;;;;;;;10377973;28;20024;-76
2023/12/25 02:54:32;;;;;;;20.35;7.05;;;;;;;;;;10379911;28;20022;-77
2023/12/25 02:59:33;;;;;;;22.77;5.63;;;;;;;;;;10380031;28;20028;-78
2023/12/25 03:04:33;;;;;;;12.57;5.53;;;;;;;;;;10381321;28;20364;-78
2023/12/25 03:09:33;;;;;;;13.90;5.15;;;;;;;;;;10380925;28;20247;-77
2023/12/25 03:14:33;;;;;;;11.57;4.43;;;;;;;;;;10380456;28;20311;-77
2023/12/25 03:19:34;;;;;;;9.40;4.18;;;;;;;;;;10379133;28;20318;-77
2023/12/25 03:24:34;;;;;;;7.53;4.77;;;;;;;;;;10380062;28;20220;-77
2023/12/25 03:29:35;;;;;;;12.85;5.18;;;;;;;;;;10380626;28;20029;-79
2023/12/25 03:34:44;;;;;;;10.23;4.50;;;;;;;;;;10380583;28;20045;-78
2023/12/25 03:39:44;;;;;;;13.18;3.80;;;;;;;;;;10379493;28;20030;-77
2023/12/25 03:44:45;;;;;;;19.25;4.75;;;;;;;;;;10378160;28;20231;-77
2023/12/25 03:49:45;;;;;;;14.18;4.63;;;;;;;;;;10379335;28;20025;-78
2023/12/25 03:54:45;;;;;;;14.68;5.13;;;;;;;;;;10379304;28;20037;-78
2023/12/25 03:59:45;;;;;;;11.77;4.85;;;;;;;;;;10377726;28;20371;-76
2023/12/25 04:04:46;;;;;;;18.02;5.82;;;;;;;;;;10378999;28;20307;-77
2023/12/25 04:09:46;;;;;;;11.35;5.28;;;;;;;;;;10379646;28;20115;-77
2023/12/25 04:14:46;;;;;;;10.90;5.15;;;;;;;;;;10379525;28;20018;-77
2023/12/25 04:19:47;;;;;;;22.02;6.25;;;;;;;;;;10377733;28;20017;-77
2023/12/25 04:24:47;;;;;;;11.75;4.82;;;;;;;;;;10377222;28;20168;-77
2023/12/25 04:29:47;;;;;;;15.70;4.70;;;;;;;;;;10378228;28;20025;-77
2023/12/25 04:34:47;;;;;;;9.65;4.45;;;;;;;;;;10379071;28;20287;-78
2023/12/25 04:39:48;;;;;;;23.00;4.30;;;;;;;;;;10376592;28;20236;-78
2023/12/25 04:44:48;;;;;;;12.07;5.20;;;;;;;;;;10377367;28;20049;-80
2023/12/25 04:49:48;;;;;;;10.00;4.93;;;;;;;;;;10377727;28;20045;-77
2023/12/25 04:54:48;;;;;;;8.67;4.33;;;;;;;;;;10377490;28;20057;-79
2023/12/25 04:59:49;;;;;;;9.88;4.13;;;;;;;;;;10377513;28;20053;-78
2023/12/25 05:04:49;;;;;;;7.70;4.47;;;;;;;;;;10376847;28;20093;-77
2023/12/25 05:09:49;;;;;;;9.65;4.47;;;;;;;;;;10376520;28;20018;-77
2023/12/25 05:14:50;;;;;;;18.98;5.13;;;;;;;;;;10377337;28;20010;-78
2023/12/25 05:19:51;;;;;;;13.68;4.97;;;;;;;;;;10360767;28;20345;-77
2023/12/25 05:24:51;;;;;;;13.60;5.05;;;;;;;;;;10359520;28;20018;-77
2023/12/25 05:29:51;;;;;;;15.20;5.97;;;;;;;;;;10359599;28;20092;-78
2023/12/25 05:34:51;;;;;;;13.23;5.40;;;;;;;;;;10377443;28;20375;-78
2023/12/25 05:39:52;;;;;;;13.75;4.63;;;;;;;;;;10376183;28;20028;-76
2023/12/25 05:44:52;;;;;;;11.90;4.10;;;;;;;;;;10376612;28;20026;-78
2023/12/25 05:49:53;;;;;;;11.93;5.50;;;;;;;;;;10376905;28;20024;-78
2023/12/25 05:54:53;;;;;;;13.65;4.78;;;;;;;;;;10376268;28;20561;-78
2023/12/25 05:59:53;;;;;;;12.93;4.63;;;;;;;;;;10376803;28;20022;-77
2023/12/25 06:04:54;;;;;;;14.57;5.53;;;;;;;;;;10359535;28;20049;-77
2023/12/25 06:09:54;;;;;;;11.77;5.05;;;;;;;;;;10377812;28;20026;-77
2023/12/25 06:14:54;;;;;;;8.23;4.97;;;;;;;;;;10379897;28;20009;-78
2023/12/25 06:19:54;;;;;;;10.32;5.05;;;;;;;;;;10382245;28;20021;-77
2023/12/25 06:24:55;;;;;;;13.88;4.72;;;;;;;;;;10381380;28;20017;-78
2023/12/25 06:29:56;;;;;;;12.02;5.40;;;;;;;;;;10362901;28;20204;-78
2023/12/25 06:34:56;;;;;;;13.50;5.13;;;;;;;;;;10364908;28;20093;-78
2023/12/25 06:39:56;;;;;;;10.13;5.85;;;;;;;;;;10381840;28;20044;-77
2023/12/25 06:44:56;;;;;;;14.40;4.68;;;;;;;;;;10392294;28;20208;-77
2023/12/25 06:49:57;;;;;;;10.18;3.70;;;;;;;;;;10364422;28;20022;-77
2023/12/25 06:54:57;;;;;;;11.65;5.60;;;;;;;;;;10381483;28;20036;-79
2023/12/25 06:59:57;;;;;;;12.88;5.80;;;;;;;;;;10381479;28;20021;-77
2023/12/25 07:04:57;;;;;;;10.23;5.05;;;;;;;;;;10382767;28;20089;-78
2023/12/25 07:09:57;;;;;;;11.00;4.70;;;;;;;;;;10380125;28;20041;-78
2023/12/25 07:14:58;;;;;;;12.75;5.25;;;;;;;;;;10368892;28;20010;-78
2023/12/25 07:20:12;;;;;;;11.37;5.20;;;;;;;;;;10354120;28;20049;-79
2023/12/25 07:25:12;;;;;;;11.25;4.93;;;;;;;;;;10312076;28;20037;-79
2023/12/25 07:30:13;;;;;;;10.43;5.55;;;;;;;;;;10319689;28;20045;-80
2023/12/25 07:35:13;;;;;;;13.20;5.68;;;;;;;;;;10320854;28;20030;-78
2023/12/25 07:40:13;;;;;;;12.50;5.57;;;;;;;;;;10323367;28;20254;-78
2023/12/25 07:45:13;;;;;;;17.42;5.60;;;;;;;;;;10306546;28;20064;-79
2023/12/25 07:50:14;;;;;;;11.40;5.00;;;;;;;;;;10325978;28;20474;-78
2023/12/25 07:55:14;;;;;;;10.27;4.43;;;;;;;;;;10320398;28;20454;-76
2023/12/25 08:00:15;;;;;;;11.35;4.32;;;;;;;;;;10329635;28;20060;-80
2023/12/25 08:05:15;;;;;;;13.65;5.20;;;;;;;;;;10311589;28;20023;-79
2023/12/25 08:10:15;;;;;;;16.50;5.10;;;;;;;;;;10317346;28;20209;-79
2023/12/25 08:15:16;;;;;;;7.65;4.10;;;;;;;;;;10320133;28;20034;-80
2023/12/25 08:20:17;;;;;;;10.77;3.83;;;;;;;;;;10322410;28;20014;-80
2023/12/25 08:25:17;;;;;;;12.23;3.80;;;;;;;;;;10322961;28;20303;-79
2023/12/25 08:30:17;;;;;;;8.68;3.83;;;;;;;;;;10321356;28;20049;-81
2023/12/25 08:35:17;;;;;;;8.35;3.08;;;;;;;;;;10316586;28;20224;-80
2023/12/25 08:40:18;;;;;;;12.55;3.35;;;;;;;;;;10325884;28;20011;-80
2023/12/25 08:45:18;;;;;;;13.68;4.35;;;;;;;;;;10322528;28;20007;-80
2023/12/25 08:50:18;;;;;;;11.93;4.50;;;;;;;;;;10316042;28;20177;-81
2023/12/25 08:55:18;;;;;;;11.15;4.00;;;;;;;;;;10278279;28;1104462;-80
2023/12/25 09:00:20;;;;;;;10.25;4.32;;;;;;;;;;10326271;28;20030;-80
2023/12/25 09:05:20;;;;;;;12.00;4.35;;;;;;;;;;10328858;28;20263;-81
2023/12/25 09:10:20;;;;;;;12.80;3.83;;;;;;;;;;10320131;28;20017;-80
2023/12/25 09:15:20;;;;;;;12.02;4.05;;;;;;;;;;10322277;28;20014;-80
2023/12/25 09:20:20;;;;;;;23.58;14.48;;;;;;;;;;10325961;28;20022;-78
2023/12/25 09:25:21;;;;;;;10.38;3.65;;;;;;;;;;10317286;28;20037;-81
2023/12/25 09:30:21;;;;;;;11.45;3.70;;;;;;;;;;10319770;28;20209;-81
2023/12/25 09:35:21;;;;;;;8.73;3.28;;;;;;;;;;10319362;28;20034;-81
2023/12/25 09:40:21;;;;;;;23.27;4.85;;;;;;;;;;10323915;28;20288;-82
2023/12/25 09:45:22;;;;;;;12.75;4.75;;;;;;;;;;10327812;28;20018;-80
2023/12/25 09:50:23;;;;;;;21.25;5.22;;;;;;;;;;10336703;28;20025;-82
2023/12/25 09:55:23;;;;;;;12.83;5.10;;;;;;;;;;10328270;28;20355;-82
2023/12/25 10:00:24;;;;;;;17.83;5.22;;;;;;;;;;10335067;28;20025;-81
2023/12/25 10:05:24;;;;;;;14.30;4.85;;;;;;;;;;10330319;28;20030;-82
2023/12/25 10:10:30;;;;;;;14.77;5.28;;;;;;;;;;10308914;28;20053;-81
2023/12/25 10:15:30;;;;;;;20.00;4.78;;;;;;;;;;10323044;28;20204;-82
2023/12/25 10:20:31;;;;;;;14.18;4.20;;;;;;;;;;10327544;28;20010;-82
2023/12/25 10:25:31;;;;;;;12.10;3.40;;;;;;;;;;10331490;28;20039;-81
2023/12/25 10:30:32;;;;;;;265.25;245.65;;;;;;;;;;10325741;28;20065;-81
2023/12/25 10:35:32;;;;;;;349.40;321.13;;;;;;;;;;10314694;28;20039;-82
2023/12/25 10:40:33;;;;;;;14.45;3.17;;;;;;;;;;10329110;28;20019;-82
2023/12/25 10:45:33;;;;;;;739.55;674.75;;;;;;;;;;10313350;28;20022;-83
2023/12/25 10:50:36;;;;;;;554.17;507.48;;;;;;;;;;10323601;28;20247;-82
2023/12/25 10:55:43;;;;;;;5.88;2.85;;;;;;;;;;10329058;28;20046;-82
2023/12/25 11:00:56;;;;;;;8.63;4.10;;;;;;;;;;10341459;28;20034;-82
2023/12/25 11:05:57;;;;;;;6.65;2.95;;;;;;;;;;10331822;28;20133;-82
2023/12/25 11:10:57;;;;;;;10.45;3.65;;;;;;;;;;10335042;28;20073;-82
2023/12/25 11:15:58;;;;;;;13.73;3.40;;;;;;;;;;10331643;28;20379;-81
2023/12/25 11:21:03;;;;;;;11.98;3.53;;;;;;;;;;10314987;28;20081;-82
2023/12/25 11:26:07;;;;;;;8.77;3.28;;;;;;;;;;10337509;28;20219;-82
2023/12/25 11:31:08;;;;;;;12.18;2.97;;;;;;;;;;10337514;28;20022;-83
2023/12/25 11:36:12;;;;;;;30.93;17.50;;;;;;;;;;10325272;28;20018;-83
2023/12/25 11:41:19;;;;;;;10.00;2.70;;;;;;;;;;10321708;28;20285;-82
2023/12/25 11:46:19;;;;;;;8.55;2.90;;;;;;;;;;10327056;28;20308;-82
2023/12/25 11:51:20;;;;;;;7.45;2.88;;;;;;;;;;10318667;28;20019;-82
2023/12/25 11:56:20;;;;;;;11.43;2.95;;;;;;;;;;10323797;28;20039;-81
2023/12/25 12:01:22;;;;;;;12.98;2.60;;;;;;;;;;10324579;28;20021;-82
2023/12/25 12:06:22;;;;;;;9.93;3.05;;;;;;;;;;10343478;28;20022;-81
2023/12/25 12:11:24;;;;;;;8.57;3.43;;;;;;;;;;10330122;28;20018;-82
2023/12/25 12:16:27;;;;;;;12.18;4.40;;;;;;;;;;10329512;28;20326;-82
2023/12/25 12:21:27;;;;;;;11.00;4.20;;;;;;;;;;10336825;28;20102;-82
2023/12/25 12:26:27;;;;;;;8.40;2.83;;;;;;;;;;10328124;28;20010;-80
2023/12/25 12:31:28;;;;;;;8.18;3.30;;;;;;;;;;10320292;28;20174;-82
2023/12/25 12:36:28;;;;;;;14.38;5.35;;;;;;;;;;10320800;28;20049;-82
2023/12/25 12:41:28;;;;;;;12.57;3.22;;;;;;;;;;10328803;28;20017;-81
2023/12/25 12:46:28;;;;;;;7.05;3.00;;;;;;;;;;10329378;28;20015;-82
2023/12/25 12:51:28;;;;;;;10.30;3.65;;;;;;;;;;10327866;28;20206;-82
2023/12/25 12:56:30;;;;;;;11.77;3.22;;;;;;;;;;10317979;28;20035;-81
2023/12/25 13:01:31;;;;;;;12.50;3.55;;;;;;;;;;10317675;28;20185;-82
2023/12/25 13:06:31;;;;;;;9.32;3.13;;;;;;;;;;10305761;28;20018;-82
2023/12/25 13:11:31;;;;;;;11.93;3.33;;;;;;;;;;10323726;28;20313;-81
2023/12/25 13:16:33;;;;;;;8.87;3.07;;;;;;;;;;10319884;28;20228;-82
2023/12/25 13:21:33;;;;;;;7.75;3.22;;;;;;;;;;10315557;28;20281;-81
2023/12/25 13:26:33;;;;;;;11.02;3.38;;;;;;;;;;10325201;28;20050;-82
2023/12/25 13:31:33;;;;;;;8.45;3.42;;;;;;;;;;10326349;28;20030;-82
2023/12/25 13:36:34;;;;;;;6.30;3.33;;;;;;;;;;10328434;28;20252;-82
2023/12/25 13:41:34;;;;;;;13.67;4.13;;;;;;;;;;10326219;28;20014;-81
2023/12/25 13:46:34;;;;;;;6.77;3.47;;;;;;;;;;10322550;28;20022;-81
2023/12/25 13:51:34;;;;;;;13.30;4.03;;;;;;;;;;10322217;28;20022;-82
2023/12/25 13:56:35;;;;;;;6.57;3.75;;;;;;;;;;10326722;28;20069;-82
2023/12/25 14:01:35;;;;;;;12.90;3.85;;;;;;;;;;10322817;28;20019;-81
2023/12/25 14:06:35;;;;;;;19.65;4.05;;;;;;;;;;10317784;28;20023;-82
2023/12/25 14:11:35;;;;;;;10.80;3.72;;;;;;;;;;10323109;28;20376;-82
2023/12/25 14:16:35;;;;;;;11.88;4.07;;;;;;;;;;10319822;28;20022;-82
2023/12/25 14:21:36;;;;;;;11.90;3.97;;;;;;;;;;10320110;28;20045;-82
2023/12/25 14:26:36;;;;;;;10.85;4.45;;;;;;;;;;10324206;28;20014;-81
2023/12/25 14:31:36;;;;;;;12.05;5.07;;;;;;;;;;10328281;28;20018;-81
2023/12/25 14:36:36;;;;;;;18.08;5.57;;;;;;;;;;10335368;28;20085;-82
2023/12/25 14:41:37;;;;;;;18.60;5.82;;;;;;;;;;10333412;28;20022;-81
2023/12/25 14:46:37;;;;;;;25.08;6.45;;;;;;;;;;10323176;28;20018;-81
2023/12/25 14:51:37;;;;;;;14.15;5.57;;;;;;;;;;10328249;28;20019;-80
2023/12/25 14:56:37;;;;;;;22.25;7.55;;;;;;;;;;10328202;28;20037;-81
2023/12/25 15:01:38;;;;;;;34.20;7.67;;;;;;;;;;10331188;28;20081;-81
2023/12/25 15:06:38;;;;;;;21.08;7.57;;;;;;;;;;10324124;28;20029;-80
2023/12/25 15:11:45;;;;;;;17.80;6.63;;;;;;;;;;10331311;28;20291;-82
2023/12/25 15:16:47;;;;;;;19.25;7.75;;;;;;;;;;10329902;28;20034;-80
2023/12/25 15:21:47;;;;;;;30.50;9.35;;;;;;;;;;10328457;28;20021;-81
2023/12/25 15:26:47;;;;;;;34.40;8.55;;;;;;;;;;10337473;28;20376;-82
2023/12/25 15:31:48;;;;;;;21.77;9.15;;;;;;;;;;10328829;28;20030;-84
2023/12/25 15:36:48;;;;;;;27.38;9.18;;;;;;;;;;10332683;28;20240;-85
2023/12/25 15:41:48;;;;;;;16.65;7.45;;;;;;;;;;10318967;28;20118;-84
2023/12/25 15:46:49;;;;;;;16.30;6.65;;;;;;;;;;10321460;28;20022;-83
2023/12/25 15:51:49;;;;;;;22.13;7.95;;;;;;;;;;10335898;28;20014;-81
2023/12/25 15:56:49;;;;;;;19.05;8.15;;;;;;;;;;10312663;28;20044;-80
2023/12/25 16:01:50;;;;;;;16.52;7.05;;;;;;;;;;10327116;28;20027;-78
2023/12/25 16:06:51;;;;;;;21.23;8.95;;;;;;;;;;10326307;28;20085;-84
2023/12/25 16:11:52;;;;;;;27.55;8.82;;;;;;;;;;10332046;28;20086;-83
2023/12/25 16:16:52;;;;;;;31.60;9.20;;;;;;;;;;10324040;28;20102;-83
2023/12/25 16:21:53;;;;;;;25.85;8.45;;;;;;;;;;10329751;28;20240;-82
2023/12/25 16:26:53;;;;;;;29.52;10.10;;;;;;;;;;10328882;28;20026;-80
2023/12/25 16:31:53;;;;;;;30.55;10.50;;;;;;;;;;10325365;28;20018;-88
2023/12/25 16:36:53;;;;;;;38.10;18.92;;;;;;;;;;10320270;28;20309;-80
2023/12/25 16:41:53;;;;;;;24.15;10.75;;;;;;;;;;10320633;28;20018;-80
2023/12/25 16:46:54;;;;;;;46.40;12.90;;;;;;;;;;10332666;28;20308;-79
2023/12/25 16:51:54;;;;;;;59.17;53.38;;;;;;;;;;10321974;28;20397;-83
2023/12/25 16:56:54;;;;;;;43.00;13.57;;;;;;;;;;10306675;28;20105;-81
2023/12/25 17:01:55;;;;;;;24.42;8.52;;;;;;;;;;10327860;28;20018;-82
2023/12/25 17:06:55;;;;;;;41.15;11.95;;;;;;;;;;10312137;28;20054;-79
2023/12/25 17:11:56;;;;;;;46.60;11.27;;;;;;;;;;10312129;28;20022;-86
2023/12/25 17:16:56;;;;;;;33.20;12.27;;;;;;;;;;10307073;28;20031;-85
2023/12/25 17:21:59;;;;;;;23.92;8.98;;;;;;;;;;10322312;28;20395;-83
2023/12/25 17:27:00;;;;;;;28.60;9.93;;;;;;;;;;10330433;28;20018;-81
2023/12/25 17:32:00;;;;;;;58.53;15.13;;;;;;;;;;10322873;28;20014;-82
2023/12/25 17:37:00;;;;;;;37.40;12.83;;;;;;;;;;10316896;28;20536;-81
2023/12/25 17:42:01;;;;;;;25.45;10.35;;;;;;;;;;10327394;28;20308;-83
2023/12/25 17:47:01;;;;;;;30.08;10.10;;;;;;;;;;10316542;28;20037;-83
2023/12/25 17:52:02;;;;;;;26.40;11.07;;;;;;;;;;10324196;28;20244;-80
2023/12/25 17:57:03;;;;;;;29.52;11.00;;;;;;;;;;10328050;28;20047;-81
2023/12/25 18:02:03;;;;;;;30.73;11.15;;;;;;;;;;10332949;28;20347;-80
2023/12/25 18:07:03;;;;;;;29.70;10.80;;;;;;;;;;10334576;28;20014;-82
2023/12/25 18:12:10;;;;;;;28.00;10.90;;;;;;;;;;10338691;28;20018;-92
2023/12/25 18:17:10;;;;;;;30.13;11.50;;;;;;;;;;10318952;28;20216;-82
2023/12/25 18:22:10;;;;;;;33.97;11.70;;;;;;;;;;10320723;28;20272;-79
2023/12/25 18:27:10;;;;;;;30.48;11.85;;;;;;;;;;10322686;28;20018;-79
2023/12/25 18:32:11;;;;;;;28.98;11.60;;;;;;;;;;10326622;28;20053;-80
2023/12/25 18:37:11;;;;;;;37.40;13.30;;;;;;;;;;10329903;28;20014;-81
2023/12/25 18:42:11;;;;;;;29.20;14.15;;;;;;;;;;10326056;28;20025;-80
2023/12/25 18:47:12;;;;;;;32.50;13.13;;;;;;;;;;10335333;28;20763;-81
2023/12/25 18:52:12;;;;;;;39.72;14.13;;;;;;;;;;10335789;28;20026;-81
2023/12/25 18:57:12;;;;;;;41.40;15.00;;;;;;;;;;10326471;28;20232;-81
2023/12/25 19:02:12;;;;;;;23.05;10.98;;;;;;;;;;10317051;28;20231;-83
2023/12/25 19:07:14;;;;;;;26.37;12.57;;;;;;;;;;10324691;28;20037;-84
2023/12/25 19:12:15;;;;;;;31.35;11.98;;;;;;;;;;10316052;28;20101;-83
2023/12/25 19:17:43;;;;;;;27.70;12.95;;;;;;;;;;10324375;28;20089;-92
2023/12/25 19:22:43;;;;;;;36.33;14.63;;;;;;;;;;10328907;28;20015;-80
2023/12/25 19:27:44;;;;;;;34.58;12.35;;;;;;;;;;10330800;28;20023;-83
2023/12/25 19:32:44;;;;;;;31.40;12.77;;;;;;;;;;10312533;28;20205;-85
2023/12/25 19:37:47;;;;;;;29.25;12.30;;;;;;;;;;10315956;28;20041;-82
2023/12/25 19:42:48;;;;;;;32.88;12.80;;;;;;;;;;10315258;28;20088;-83
2023/12/25 19:47:50;;;;;;;32.10;12.70;;;;;;;;;;10315876;28;20085;-84
2023/12/25 19:52:53;;;;;;;33.40;13.07;;;;;;;;;;10322890;28;20038;-83
2023/12/25 19:57:53;;;;;;;25.42;9.50;;;;;;;;;;10321171;28;20035;-79
2023/12/25 20:02:53;;;;;;;31.52;12.13;;;;;;;;;;10317331;28;20090;-79
2023/12/25 20:07:54;;;;;;;38.30;13.07;;;;;;;;;;10315517;28;20057;-81
2023/12/25 20:12:54;;;;;;;33.13;11.05;;;;;;;;;;10324893;28;20082;-84
2023/12/25 20:17:56;;;;;;;26.65;11.70;;;;;;;;;;10320685;28;20249;-79
2023/12/25 20:22:57;;;;;;;37.55;10.52;;;;;;;;;;10311390;28;20022;-84
2023/12/25 20:27:57;;;;;;;28.00;10.60;;;;;;;;;;10321760;23;20538;-78
2023/12/25 20:32:57;;;;;;;28.67;11.68;;;;;;;;;;10286599;28;20034;-80
2023/12/25 20:37:57;;;;;;;32.15;11.00;;;;;;;;;;10277037;28;20026;-78
2023/12/25 20:42:58;;;;;;;30.87;11.93;;;;;;;;;;10310328;23;20129;-78
2023/12/25 20:47:58;;;;;;;26.17;12.07;;;;;;;;;;10276791;28;20057;-80
2023/12/25 20:52:59;;;;;;;46.08;13.48;;;;;;;;;;10283184;28;20019;-76
2023/12/25 20:57:59;;;;;;;45.03;11.27;;;;;;;;;;10286852;28;20130;-77
2023/12/25 21:03:00;;;;;;;23.27;9.85;;;;;;;;;;10272304;28;20030;-76
2023/12/25 21:08:00;;;;;;;28.70;11.10;;;;;;;;;;10297593;28;20057;-78
2023/12/25 21:13:02;;;;;;;27.83;10.17;;;;;;;;;;10278208;28;20018;-76
2023/12/25 21:18:02;;;;;;;34.90;10.98;;;;;;;;;;10317525;28;20408;-78
2023/12/25 21:23:02;;;;;;;19.37;8.23;;;;;;;;;;10302401;28;20019;-78
2023/12/25 21:28:03;;;;;;;17.20;8.40;;;;;;;;;;10305998;28;20036;-77
2023/12/25 21:33:03;;;;;;;21.10;8.70;;;;;;;;;;10303166;28;20269;-77
2023/12/25 21:38:03;;;;;;;22.35;9.82;;;;;;;;;;10303789;28;20030;-80
2023/12/25 21:43:04;;;;;;;21.38;10.27;;;;;;;;;;10333689;23;20073;-76
2023/12/25 21:48:04;;;;;;;24.00;10.00;;;;;;;;;;10368106;28;20029;-76
2023/12/25 21:53:06;;;;;;;17.70;9.90;;;;;;;;;;10368041;28;20116;-76
2023/12/25 21:58:06;;;;;;;24.77;9.50;;;;;;;;;;10351576;28;20112;-76
2023/12/25 22:03:07;;;;;;;25.65;8.50;;;;;;;;;;10351640;28;20026;-76
2023/12/25 22:08:07;;;;;;;31.48;8.98;;;;;;;;;;10345468;28;20026;-75
2023/12/25 22:13:08;;;;;;;16.83;6.60;;;;;;;;;;10367771;28;20029;-76
2023/12/25 22:18:08;;;;;;;19.83;7.97;;;;;;;;;;10367698;28;20029;-76
2023/12/25 22:23:08;;;;;;;22.23;7.75;;;;;;;;;;10369639;28;20068;-76
2023/12/25 22:28:08;;;;;;;24.15;8.70;;;;;;;;;;10367383;28;20021;-76
2023/12/25 22:33:09;;;;;;;28.30;8.85;;;;;;;;;;10368426;28;20481;-76
2023/12/25 22:38:09;;;;;;;20.63;8.52;;;;;;;;;;10366811;28;20022;-78
2023/12/25 22:43:09;;;;;;;19.73;8.35;;;;;;;;;;10366066;28;20049;-76
2023/12/25 22:48:10;;;;;;;22.02;7.55;;;;;;;;;;10350130;28;20149;-76
2023/12/25 22:53:10;;;;;;;19.73;7.55;;;;;;;;;;10364486;28;20048;-76
2023/12/25 22:58:10;;;;;;;19.73;8.10;;;;;;;;;;10361714;28;20038;-76
2023/12/25 23:03:11;;;;;;;18.07;6.90;;;;;;;;;;10349879;28;20026;-76
2023/12/25 23:08:11;;;;;;;13.98;7.07;;;;;;;;;;10365250;28;20040;-76
2023/12/25 23:13:11;;;;;;;25.85;7.53;;;;;;;;;;10405345;23;20063;-75
2023/12/25 23:18:12;;;;;;;22.30;8.13;;;;;;;;;;10406029;28;20072;-77
2023/12/25 23:23:13;;;;;;;14.93;7.55;;;;;;;;;;10389080;28;20017;-76
2023/12/25 23:28:13;;;;;;;17.52;7.95;;;;;;;;;;10389058;28;20545;-76
2023/12/25 23:33:14;;;;;;;16.10;6.72;;;;;;;;;;10388883;28;20037;-76
2023/12/25 23:38:14;;;;;;;14.02;5.82;;;;;;;;;;10389015;28;20361;-75
2023/12/25 23:43:14;;;;;;;10.18;5.35;;;;;;;;;;10388466;28;20411;-77
2023/12/25 23:48:15;;;;;;;13.98;7.00;;;;;;;;;;10389146;28;20582;-76
2023/12/25 23:53:15;;;;;;;18.30;7.50;;;;;;;;;;10387847;28;20033;-79
2023/12/25 23:58:16;;;;;;;23.40;6.47;;;;;;;;;;10388543;28;20048;-76
